createdAt,value
2018-03-26T00:01:30.710Z,32.67
2018-03-26T00:04:36.452Z,71.83
2018-03-26T00:07:40.372Z,101.67
2018-03-26T00:10:46.793Z,76.57
2018-03-26T00:13:53.184Z,88.37
2018-03-26T00:16:56.752Z,90.07
2018-03-26T00:20:04.771Z,44.57
2018-03-26T00:23:08.530Z,71.90
2018-03-26T00:26:14.252Z,122.07
2018-03-26T00:29:17.719Z,57.30
2018-03-26T00:32:23.380Z,139.50
2018-03-26T00:35:27.257Z,114.60
2018-03-26T00:38:30.809Z,77.20
2018-03-26T00:41:35.508Z,89.37
2018-03-26T00:44:40.667Z,46.73
2018-03-26T00:47:44.578Z,29.37
2018-03-26T00:50:51.427Z,42.77
2018-03-26T00:53:54.824Z,71.53
2018-03-26T00:56:59.901Z,48.70
2018-03-26T01:00:05.944Z,48.20
2018-03-26T01:03:11.502Z,57.40
2018-03-26T01:06:14.887Z,63.47
2018-03-26T01:09:20.380Z,83.87
2018-03-26T01:12:24.240Z,41.53
2018-03-26T01:15:28.959Z,67.60
2018-03-26T01:18:33.300Z,42.27
2018-03-26T01:21:36.784Z,44.33
2018-03-26T01:24:40.224Z,23.97
2018-03-26T01:27:43.808Z,37.83
2018-03-26T01:30:47.260Z,31.00
2018-03-26T01:33:51.363Z,45.10
2018-03-26T01:36:58.001Z,26.30
2018-03-26T01:40:02.712Z,23.03
2018-03-26T01:43:09.285Z,38.50
2018-03-26T01:46:13.899Z,28.73
2018-03-26T01:49:17.458Z,21.10
2018-03-26T01:52:22.501Z,41.87
2018-03-26T01:55:27.651Z,26.83
2018-03-26T01:58:32.752Z,40.90
2018-03-26T02:01:38.078Z,29.00
2018-03-26T02:04:41.704Z,43.87
2018-03-26T02:07:45.513Z,24.67
2018-03-26T02:10:50.564Z,19.70
2018-03-26T02:13:54.662Z,52.43
2018-03-26T02:17:02.197Z,47.07
2018-03-26T02:20:06.675Z,35.83
2018-03-26T02:23:12.982Z,57.33
2018-03-26T02:26:18.532Z,82.77
2018-03-26T02:29:25.728Z,48.60
2018-03-26T02:32:30.154Z,46.70
2018-03-26T02:35:35.687Z,22.60
2018-03-26T02:38:40.452Z,20.73
2018-03-26T02:41:46.481Z,17.00
2018-03-26T02:44:53.743Z,41.30
2018-03-26T02:47:57.876Z,46.60
2018-03-26T02:51:03.298Z,46.67
2018-03-26T02:54:11.061Z,37.03
2018-03-26T02:57:14.532Z,45.57
2018-03-26T03:00:22.228Z,35.93
2018-03-26T03:03:28.744Z,53.70
2018-03-26T04:55:02.428Z,18.13
2018-03-26T04:58:05.755Z,21.63
2018-03-26T05:01:09.108Z,13.67
2018-03-26T05:04:12.673Z,13.30
2018-03-26T05:07:16.128Z,11.27
2018-03-26T05:10:19.478Z,12.67
2018-03-26T05:13:22.904Z,13.37
2018-03-26T05:16:26.326Z,11.00
2018-03-26T05:19:29.725Z,11.37
2018-03-26T05:22:33.072Z,7.97
2018-03-26T05:25:36.417Z,9.77
2018-03-26T05:28:39.753Z,6.93
2018-03-26T05:31:43.741Z,10.73
2018-03-26T05:34:47.724Z,8.97
2018-03-26T05:37:51.079Z,7.37
2018-03-26T05:40:54.432Z,9.87
2018-03-26T05:43:57.778Z,6.57
2018-03-26T05:47:01.791Z,8.80
2018-03-26T05:50:05.207Z,10.33
2018-03-26T05:53:09.292Z,10.37
2018-03-26T05:56:12.645Z,13.47
2018-03-26T05:59:16.033Z,9.77
2018-03-26T06:02:19.433Z,13.43
2018-03-26T06:05:22.803Z,9.90
2018-03-26T06:08:26.145Z,11.00
2018-03-26T06:11:29.569Z,10.67
2018-03-26T06:14:32.943Z,11.57
2018-03-26T06:17:36.389Z,10.17
2018-03-26T06:20:39.786Z,11.57
2018-03-26T06:23:43.213Z,11.13
2018-03-26T06:26:47.906Z,17.37
2018-03-26T06:29:51.235Z,16.77
2018-03-26T06:32:54.600Z,17.70
2018-03-26T06:35:58.117Z,13.07
2018-03-26T06:39:01.461Z,12.43
2018-03-26T06:42:05.548Z,10.13
2018-03-26T06:45:08.945Z,13.37
2018-03-26T06:48:12.295Z,11.10
2018-03-26T06:51:15.647Z,9.53
2018-03-26T06:54:18.964Z,8.73
2018-03-26T06:57:22.306Z,13.80
2018-03-26T07:00:25.651Z,10.73
2018-03-26T07:03:28.983Z,13.60
2018-03-26T07:06:32.295Z,11.80
2018-03-26T07:09:35.638Z,10.67
2018-03-26T07:12:39.016Z,7.73
2018-03-26T07:15:42.339Z,13.67
2018-03-26T07:18:45.699Z,9.83
2018-03-26T07:21:49.012Z,9.23
2018-03-26T07:24:52.348Z,11.17
2018-03-26T07:27:55.688Z,7.13
2018-03-26T07:30:59.765Z,9.30
2018-03-26T07:34:03.096Z,10.17
2018-03-26T07:37:06.475Z,7.33
2018-03-26T07:40:09.798Z,12.27
2018-03-26T07:43:13.123Z,8.77
2018-03-26T07:46:16.451Z,8.83
2018-03-26T07:49:19.785Z,10.07
2018-03-26T07:52:23.128Z,6.73
2018-03-26T07:55:26.453Z,9.97
2018-03-26T07:58:29.847Z,8.23
2018-03-26T08:01:33.184Z,6.00
2018-03-26T08:04:36.518Z,6.37
2018-03-26T08:07:39.828Z,6.10
2018-03-26T08:10:43.190Z,6.10
2018-03-26T08:13:46.509Z,6.10
2018-03-26T08:16:49.841Z,7.43
2018-03-26T08:19:53.152Z,7.67
2018-03-26T08:22:56.478Z,5.47
2018-03-26T08:25:59.799Z,5.60
2018-03-26T08:29:03.134Z,6.03
2018-03-26T08:32:06.463Z,6.57
2018-03-26T08:35:09.781Z,5.90
2018-03-26T08:38:13.112Z,8.03
2018-03-26T08:41:16.420Z,7.73
2018-03-26T08:44:19.749Z,6.63
2018-03-26T08:47:23.059Z,5.77
2018-03-26T08:50:26.386Z,5.93
2018-03-26T08:53:29.717Z,6.80
2018-03-26T08:56:33.042Z,7.77
2018-03-26T08:59:36.351Z,8.80
2018-03-26T09:02:39.676Z,9.20
2018-03-26T09:05:43.029Z,8.70
2018-03-26T09:08:46.316Z,13.07
2018-03-26T09:11:49.627Z,13.67
2018-03-26T09:14:53.048Z,13.60
2018-03-26T09:17:56.582Z,12.83
2018-03-26T09:20:59.907Z,10.07
2018-03-26T09:24:04.000Z,13.13
2018-03-26T09:27:07.299Z,15.57
2018-03-26T09:30:11.397Z,17.00
2018-03-26T09:33:14.710Z,12.33
2018-03-26T09:36:18.041Z,11.23
2018-03-26T09:39:21.358Z,17.97
2018-03-26T09:42:24.696Z,16.70
2018-03-26T09:45:28.024Z,17.70
2018-03-26T09:48:31.342Z,15.63
2018-03-26T09:51:34.642Z,15.10
2018-03-26T09:54:37.972Z,12.93
2018-03-26T09:57:41.282Z,14.87
2018-03-26T10:00:49.442Z,11.23
2018-03-26T10:03:52.711Z,12.40
2018-03-26T10:06:56.032Z,15.80
2018-03-26T10:09:59.391Z,14.93
2018-03-26T10:13:03.486Z,12.03
2018-03-26T10:16:06.829Z,22.10
2018-03-26T10:19:10.183Z,11.10
2018-03-26T10:22:13.491Z,11.97
2018-03-26T10:25:16.849Z,12.23
2018-03-26T10:28:20.994Z,13.27
2018-03-26T10:31:24.317Z,19.27
2018-03-26T10:34:28.446Z,14.03
2018-03-26T10:37:31.775Z,11.10
2018-03-26T10:40:35.074Z,12.77
2018-03-26T10:43:38.394Z,9.60
2018-03-26T10:46:41.730Z,8.20
2018-03-26T10:49:45.374Z,8.90
2018-03-26T10:52:48.721Z,12.40
2018-03-26T10:55:52.074Z,11.00
2018-03-26T10:58:55.628Z,9.20
2018-03-26T11:01:58.944Z,9.90
2018-03-26T11:05:02.270Z,7.67
2018-03-26T11:08:05.584Z,13.13
2018-03-26T11:11:08.913Z,9.63
2018-03-26T11:14:12.214Z,7.83
2018-03-26T11:17:15.538Z,9.03
2018-03-26T11:20:18.847Z,5.90
2018-03-26T11:23:22.173Z,7.50
2018-03-26T11:26:25.507Z,6.17
2018-03-26T11:29:28.807Z,8.27
2018-03-26T11:32:32.131Z,6.23
2018-03-26T11:35:35.436Z,6.03
2018-03-26T11:38:38.763Z,6.37
2018-03-26T11:41:42.862Z,7.67
2018-03-26T11:44:46.175Z,4.50
2018-03-26T11:47:50.252Z,5.87
2018-03-26T11:50:53.579Z,5.30
2018-03-26T11:53:57.658Z,4.93
2018-03-26T11:57:00.977Z,5.07
2018-03-26T12:00:04.283Z,9.33
2018-03-26T12:03:07.620Z,5.23
2018-03-26T12:06:10.922Z,5.27
2018-03-26T12:09:14.240Z,5.57
2018-03-26T12:12:17.542Z,5.97
2018-03-26T12:15:20.872Z,7.30
2018-03-26T12:18:24.987Z,7.10
2018-03-26T12:21:29.065Z,10.43
2018-03-26T12:24:49.858Z,4.53
2018-03-26T12:28:10.727Z,5.87
2018-03-26T12:31:14.820Z,5.23
2018-03-26T12:34:35.590Z,7.60
2018-03-26T12:37:39.747Z,5.40
2018-03-26T12:40:57.623Z,4.33
2018-03-26T12:44:00.959Z,8.50
2018-03-26T12:47:04.286Z,7.90
2018-03-26T12:50:08.387Z,7.47
2018-03-26T12:53:11.715Z,8.33
2018-03-26T12:56:15.055Z,9.10
2018-03-26T12:59:18.367Z,11.97
2018-03-26T13:02:36.549Z,10.00
2018-03-26T13:05:39.917Z,9.83
2018-03-26T13:08:43.255Z,8.13
2018-03-26T13:11:46.598Z,9.97
2018-03-26T13:14:49.937Z,12.07
2018-03-26T13:17:53.259Z,9.13
2018-03-26T13:20:56.587Z,7.60
2018-03-26T13:23:59.932Z,7.63
2018-03-26T13:27:03.600Z,10.50
2018-03-26T13:30:06.948Z,10.13
2018-03-26T13:33:10.251Z,11.10
2018-03-26T13:36:13.583Z,9.13
2018-03-26T13:39:16.891Z,3.60
2018-03-26T13:42:20.228Z,4.97
2018-03-26T13:45:23.539Z,3.70
2018-03-26T13:48:26.857Z,3.77
2018-03-26T13:51:30.154Z,2.27
2018-03-26T13:54:33.483Z,8.67
2018-03-26T13:57:36.787Z,7.27
2018-03-26T14:00:40.868Z,6.07
2018-03-26T14:03:44.207Z,4.77
2018-03-26T14:06:48.263Z,6.67
2018-03-26T14:10:09.353Z,6.83
2018-03-26T14:13:30.287Z,8.27
2018-03-26T14:16:51.231Z,5.33
2018-03-26T14:19:54.538Z,4.67
2018-03-26T14:22:58.630Z,6.13
2018-03-26T14:26:01.955Z,6.47
2018-03-26T14:29:06.058Z,5.03
2018-03-26T14:32:09.379Z,4.87
2018-03-26T14:35:48.174Z,4.37
2018-03-26T14:38:51.491Z,5.37
2018-03-26T14:41:55.687Z,6.50
2018-03-26T14:44:58.991Z,4.33
2018-03-26T14:48:02.328Z,6.47
2018-03-26T14:51:05.658Z,6.20
2018-03-26T14:54:08.955Z,5.27
2018-03-26T14:57:12.275Z,4.93
2018-03-26T15:00:16.844Z,6.83
2018-03-26T15:03:20.155Z,6.20
2018-03-26T15:06:23.471Z,3.93
2018-03-26T15:09:26.786Z,12.27
2018-03-26T15:12:30.094Z,11.30
2018-03-26T15:15:33.409Z,6.23
2018-03-26T15:18:37.470Z,7.13
2018-03-26T15:21:40.787Z,13.27
2018-03-26T15:24:44.103Z,21.30
2018-03-26T15:27:48.183Z,18.73
2018-03-26T15:30:51.487Z,12.47
2018-03-26T15:33:54.823Z,7.83
2018-03-26T15:36:58.882Z,8.83
2018-03-26T15:40:02.197Z,10.37
2018-03-26T15:43:05.489Z,6.57
2018-03-26T15:46:08.794Z,7.50
2018-03-26T15:49:12.094Z,9.93
2018-03-26T15:52:15.402Z,10.67
2018-03-26T15:55:19.474Z,9.20
2018-03-26T15:58:22.792Z,12.27
2018-03-26T16:01:26.086Z,9.23
2018-03-26T16:04:29.403Z,10.83
2018-03-26T16:07:32.699Z,8.30
2018-03-26T16:10:36.007Z,10.57
2018-03-26T16:13:40.077Z,9.37
2018-03-26T16:16:43.387Z,13.73
2018-03-26T16:19:46.699Z,11.57
2018-03-26T16:22:49.995Z,11.40
2018-03-26T16:25:53.336Z,17.90
2018-03-26T16:28:56.642Z,44.43
2018-03-26T16:31:59.953Z,25.57
2018-03-26T16:35:03.420Z,28.97
2018-03-26T16:38:06.737Z,63.07
2018-03-26T16:41:10.039Z,30.47
2018-03-26T16:44:13.359Z,12.40
2018-03-26T16:47:16.694Z,23.47
2018-03-26T16:50:19.994Z,54.67
2018-03-26T16:53:23.307Z,13.43
2018-03-26T16:56:26.614Z,23.93
2018-03-26T16:59:29.929Z,8.33
2018-03-26T17:02:33.230Z,37.17
2018-03-26T17:05:36.550Z,19.77
2018-03-26T17:08:39.879Z,16.47
2018-03-26T17:11:43.186Z,32.27
2018-03-26T17:14:46.503Z,46.03
2018-03-26T17:17:49.818Z,49.40
2018-03-26T17:20:53.143Z,68.47
2018-03-26T17:23:57.209Z,39.57
2018-03-26T17:27:00.527Z,45.13
2018-03-26T17:30:03.819Z,14.70
2018-03-26T17:33:07.152Z,51.37
2018-03-26T17:36:11.255Z,40.20
2018-03-26T17:39:15.315Z,59.60
2018-03-26T17:42:18.627Z,43.43
2018-03-26T17:45:22.042Z,15.13
2018-03-26T17:48:26.035Z,20.83
2018-03-26T17:51:29.359Z,26.03
2018-03-26T17:54:32.690Z,48.40
2018-03-26T17:57:35.994Z,83.77
2018-03-26T18:00:39.308Z,15.00
2018-03-26T18:03:42.642Z,14.53
2018-03-26T18:06:45.955Z,49.97
2018-03-26T18:09:50.048Z,38.97
2018-03-26T18:12:53.363Z,23.07
2018-03-26T18:15:56.731Z,18.83
2018-03-26T18:19:00.039Z,178.10
2018-03-26T18:22:03.348Z,29.23
2018-03-26T18:25:06.686Z,30.33
2018-03-26T18:28:10.006Z,139.83
2018-03-26T18:31:13.339Z,24.63
2018-03-26T18:34:16.644Z,34.83
2018-03-26T18:37:19.967Z,18.80
2018-03-26T18:40:23.338Z,10.63
2018-03-26T18:43:26.662Z,37.00
2018-03-26T18:46:30.005Z,17.40
2018-03-26T18:49:33.335Z,28.20
2018-03-26T18:52:37.435Z,32.37
2018-03-26T18:55:40.751Z,68.17
2018-03-26T18:58:44.079Z,34.10
2018-03-26T19:01:47.388Z,44.37
2018-03-26T19:04:50.731Z,93.23
2018-03-26T19:07:54.051Z,54.83
2018-03-26T19:10:57.379Z,54.67
2018-03-26T19:14:00.736Z,18.60
2018-03-26T19:17:04.846Z,14.80
2018-03-26T19:20:08.927Z,11.10
2018-03-26T19:23:12.269Z,13.53
2018-03-26T19:26:15.603Z,24.80
2018-03-26T19:29:18.943Z,29.67
2018-03-26T19:32:22.313Z,13.87
2018-03-26T19:35:25.651Z,19.07
2018-03-26T19:38:28.991Z,16.40
2018-03-26T19:41:32.325Z,19.60
2018-03-26T19:44:35.638Z,14.53
2018-03-26T19:47:38.980Z,19.13
2018-03-26T19:50:42.306Z,17.30
2018-03-26T19:53:45.619Z,19.67
2018-03-26T19:56:49.740Z,43.93
2018-03-26T19:59:53.823Z,22.37
2018-03-26T20:02:57.151Z,15.07
2018-03-26T20:06:00.496Z,13.87
2018-03-26T20:09:03.827Z,23.40
2018-03-26T20:12:07.125Z,14.37
2018-03-26T20:15:10.446Z,12.47
2018-03-26T20:18:14.535Z,12.10
2018-03-26T20:21:17.848Z,11.90
2018-03-26T20:24:21.951Z,10.70
2018-03-26T20:27:25.312Z,12.83
2018-03-26T20:30:28.590Z,10.30
2018-03-26T20:33:31.916Z,10.53
2018-03-26T20:36:35.227Z,10.13
2018-03-26T20:39:38.546Z,11.37
2018-03-26T20:42:41.851Z,10.00
2018-03-26T20:45:45.934Z,9.57
2018-03-26T20:48:49.255Z,7.90
2018-03-26T20:51:52.574Z,9.00
2018-03-26T20:54:55.899Z,11.20
2018-03-26T20:57:59.227Z,11.33
2018-03-26T21:01:02.530Z,10.07
2018-03-26T21:04:06.611Z,10.47
2018-03-26T21:07:09.967Z,11.40
2018-03-26T21:10:13.284Z,11.57
2018-03-26T21:13:16.619Z,10.43
2018-03-26T21:16:19.943Z,14.27
2018-03-26T21:19:23.275Z,16.00
2018-03-26T21:22:26.587Z,11.77
2018-03-26T21:25:29.914Z,14.20
2018-03-26T21:28:33.232Z,11.47
2018-03-26T21:31:36.562Z,13.40
2018-03-26T21:34:39.889Z,12.90
2018-03-26T21:37:43.237Z,11.40
2018-03-26T21:40:46.575Z,13.00
2018-03-26T21:43:49.921Z,12.23
2018-03-26T21:46:54.021Z,17.13
2018-03-26T21:49:57.384Z,15.37
2018-03-26T21:53:00.699Z,14.03
2018-03-26T21:56:04.037Z,17.57
2018-03-26T21:59:07.355Z,13.63
2018-03-26T22:02:10.688Z,18.40
2018-03-26T22:05:14.001Z,9.93
2018-03-26T22:08:17.332Z,12.60
2018-03-26T22:11:20.654Z,16.73
2018-03-26T22:14:23.970Z,13.87
2018-03-26T22:17:27.302Z,15.53
2018-03-26T22:20:30.619Z,19.47
2018-03-26T22:23:33.952Z,16.13
2018-03-26T22:26:37.279Z,17.20
2018-03-26T22:29:40.613Z,13.80
2018-03-26T22:32:43.962Z,16.77
2018-03-26T22:35:47.295Z,14.53
2018-03-26T22:38:50.632Z,13.07
2018-03-26T22:41:53.989Z,15.20
2018-03-26T22:44:57.306Z,15.83
2018-03-26T22:48:00.661Z,12.73
2018-03-26T22:51:04.741Z,16.03
2018-03-26T22:54:08.085Z,17.23
2018-03-26T22:57:11.439Z,15.80
2018-03-26T23:00:14.770Z,18.80
2018-03-26T23:03:18.864Z,19.60
2018-03-26T23:06:22.196Z,18.20
2018-03-26T23:09:25.558Z,20.53
2018-03-26T23:12:28.875Z,15.63
2018-03-26T23:15:32.211Z,21.17
2018-03-26T23:18:35.551Z,15.00
2018-03-26T23:21:38.890Z,19.77
2018-03-26T23:24:42.198Z,16.40
2018-03-26T23:27:45.531Z,16.73
2018-03-26T23:30:48.874Z,14.70
2018-03-26T23:33:52.227Z,19.77
2018-03-26T23:36:55.566Z,20.37
2018-03-26T23:39:58.999Z,20.73
2018-03-26T23:43:02.316Z,22.43
2018-03-26T23:46:05.652Z,16.23
2018-03-26T23:49:09.791Z,19.13
2018-03-26T23:52:13.129Z,17.97
2018-03-26T23:55:16.439Z,15.63
2018-03-26T23:58:19.781Z,20.60
